Pagrindinis puslapis
METAR-TAF:

METAR-TAF

Oro uostai :

Lake Minchumina, Aliaska, Jungtinės Amerikos Valstijos

platuma: 63-52-50N, ilguma: 152-18-02W, Aukštis: 208 m

Dabartinis oras

Ataskaita buvo paskelbta 46 minutes, ne 19:56 UTC
Ramus vėjas
Temperatūra -7°C
Drėgmė 93%
Slėgis 1019 hPa
Matomumas: 16.1 km
Apsiniaukę ne aukštis 6500 ft

METAR: PAMH 281956Z AUTO 00000KT 10SM OVC065 M07/M08 A3010 RMK AO2 SLP201 T10671078 FZRANO

Laikas: 12:42 (20:42 UTC)


TAF: trūkstamas

Orai ataskaitas ir orų prognozės (METAR, TAF).

turimą stotys yra geltonos ir raudonos taškus žemėlapyje.

Perkelti pele per norėdami pamatyti stoties vardą.

Tada spustelėkite, norėdami matyti oro stebėjimo ir prognozės.

Norėdami pakeisti žemėlapį: spustelėkite ant žalios mygtukų su juodo kryžiaus žemyn,; žalią mygtuką su brūkšneliu, jei norite nutolinti; arba žalių rodyklių gretimoms žemėlapius.


METAR-TAF: